Terminal Aerodrome Forecast
Issued by NWS

Home | Current Version | Previous Version | Text Only | Print | Product List | Glossary On
Versions: 1 2 3 4 5 6 7 8 9 10 11 12 13 14 15 16 17 18 19 20 21 22 23 24 25
000
FTUS41 KOKX 160529
TAFTEB
TAF
KTEB 160529Z 1606/1712 18005KT P6SM SCT090 BKN120 BKN250
     FM161500 18012G20KT P6SM SCT040
     FM162000 18016G24KT P6SM SHRA BKN040 PROB30 1620/1622
      30016G35KT TSRA BKN025CB
     FM170000 27010KT P6SM VCSH SCT025 BKN050
     FM170300 29010KT P6SM SCT060=

USA.gov is the U.S. government's official web portal to all federal, state and local government web resources and services.